Time;durP1;ratioP1;P1;durP2;ratioP2;P2;SDS_P1;SDS_P2;PMS_P1;PMS_P2;Temp;Humidity;BMP_temperature;BMP_pressure;BME280_temperature;BME280_humidity;BME280_pressure;Samples;Min_cycle;Max_cycle;Signal;HPM_P1;HPM_P2
2022/12/22 03:26:33;;;;;;;11.98;4.85;;;;;;;;;;6114738;23;20143;-73
2022/12/22 03:29:00;;;;;;;9.95;4.20;;;;;;;;;;6132949;23;20047;-71
2022/12/22 03:31:28;;;;;;;9.32;4.60;;;;;;;;;;6133490;23;20021;-71
2022/12/22 03:33:55;;;;;;;9.07;4.50;;;;;;;;;;6133179;23;20021;-73
2022/12/22 03:36:22;;;;;;;8.48;4.63;;;;;;;;;;6116659;23;20104;-71
2022/12/22 03:38:48;;;;;;;8.45;4.40;;;;;;;;;;6111304;23;20079;-72
2022/12/22 03:46:42;;;;;;;9.82;4.82;;;;;;;;;;6113109;23;20075;-71
2022/12/22 03:49:11;;;;;;;8.73;4.45;;;;;;;;;;6136304;23;20033;-71
2022/12/22 03:51:41;;;;;;;8.27;4.13;;;;;;;;;;6135025;23;20128;-70
2022/12/22 03:54:10;;;;;;;9.52;4.53;;;;;;;;;;6088082;23;20018;-70
2022/12/22 03:56:37;;;;;;;8.27;4.30;;;;;;;;;;6117190;23;20025;-71
2022/12/22 03:59:04;;;;;;;9.32;4.75;;;;;;;;;;6155813;23;20056;-71
2022/12/22 04:01:32;;;;;;;8.68;4.40;;;;;;;;;;6119036;23;20079;-71
2022/12/22 04:04:00;;;;;;;7.70;4.10;;;;;;;;;;6102052;23;20041;-71
2022/12/22 04:06:27;;;;;;;10.30;4.90;;;;;;;;;;6090916;23;20036;-70
2022/12/22 04:08:54;;;;;;;9.13;4.53;;;;;;;;;;6123405;23;20076;-70
2022/12/22 04:14:05;;;;;;;9.07;4.63;;;;;;;;;;6151386;23;20029;-70
2022/12/22 04:16:32;;;;;;;9.52;4.40;;;;;;;;;;6134810;23;20036;-70
2022/12/22 04:19:02;;;;;;;7.80;4.25;;;;;;;;;;6073555;23;20021;-71
2022/12/22 04:21:35;;;;;;;8.45;4.35;;;;;;;;;;6109701;23;20025;-70
2022/12/22 04:24:03;;;;;;;11.60;4.50;;;;;;;;;;6089337;23;20027;-70
2022/12/22 04:26:35;;;;;;;10.57;4.10;;;;;;;;;;6123591;23;20035;-70
2022/12/22 04:29:05;;;;;;;8.40;4.25;;;;;;;;;;6130439;23;20025;-71
2022/12/22 04:31:39;;;;;;;7.95;4.10;;;;;;;;;;6136597;23;20017;-70
2022/12/22 04:34:09;;;;;;;7.30;3.90;;;;;;;;;;6127114;23;20265;-70
2022/12/22 04:36:45;;;;;;;10.27;3.83;;;;;;;;;;6087113;23;20068;-70
2022/12/22 04:39:27;;;;;;;9.00;4.45;;;;;;;;;;6098545;23;20029;-71
2022/12/22 04:42:02;;;;;;;8.02;3.90;;;;;;;;;;6106999;23;20033;-70
2022/12/22 04:44:29;;;;;;;8.27;4.25;;;;;;;;;;6072494;23;20022;-70
2022/12/22 04:47:00;;;;;;;8.82;4.22;;;;;;;;;;6086141;23;20030;-70
2022/12/22 04:49:40;;;;;;;6.90;3.80;;;;;;;;;;6096306;23;20212;-70
2022/12/22 04:52:09;;;;;;;9.38;4.35;;;;;;;;;;6058804;23;20021;-70
2022/12/22 04:54:37;;;;;;;8.07;4.10;;;;;;;;;;6109555;23;20058;-70
2022/12/22 04:57:09;;;;;;;9.00;4.43;;;;;;;;;;6102143;23;20030;-70
2022/12/22 04:59:36;;;;;;;9.35;4.05;;;;;;;;;;6129003;23;20041;-70
2022/12/22 05:02:03;;;;;;;9.02;4.43;;;;;;;;;;6129097;23;20025;-70
2022/12/22 05:04:35;;;;;;;7.95;4.05;;;;;;;;;;6112340;23;20025;-71
2022/12/22 05:07:07;;;;;;;8.95;4.43;;;;;;;;;;6073441;23;20033;-71
2022/12/22 05:10:05;;;;;;;8.25;4.22;;;;;;;;;;6114341;23;20026;-70
2022/12/22 05:12:55;;;;;;;8.70;4.18;;;;;;;;;;6099525;23;20050;-70
2022/12/22 05:15:38;;;;;;;9.48;4.22;;;;;;;;;;6080106;23;20028;-70
2022/12/22 05:18:05;;;;;;;6.93;4.05;;;;;;;;;;6071957;23;20022;-70
2022/12/22 05:20:35;;;;;;;8.75;3.90;;;;;;;;;;6084037;23;20030;-70
2022/12/22 05:23:01;;;;;;;8.48;3.90;;;;;;;;;;6054504;23;20033;-71
2022/12/22 05:25:50;;;;;;;7.75;4.03;;;;;;;;;;6128187;23;20030;-70
2022/12/22 05:28:19;;;;;;;7.13;4.00;;;;;;;;;;6069131;23;20025;-70
2022/12/22 05:30:46;;;;;;;6.93;3.83;;;;;;;;;;6042830;23;20029;-70
2022/12/22 05:33:20;;;;;;;8.02;4.15;;;;;;;;;;6085195;23;20026;-71
2022/12/22 05:35:50;;;;;;;7.28;3.72;;;;;;;;;;6131265;23;20069;-70
2022/12/22 05:38:19;;;;;;;7.70;3.95;;;;;;;;;;6136059;23;20029;-70
2022/12/22 05:40:51;;;;;;;7.85;3.88;;;;;;;;;;6122546;23;20480;-70
2022/12/22 05:43:27;;;;;;;8.23;4.22;;;;;;;;;;6055044;23;20028;-70
2022/12/22 05:45:57;;;;;;;9.00;4.47;;;;;;;;;;6084232;23;20029;-70
2022/12/22 05:48:31;;;;;;;6.97;3.88;;;;;;;;;;6080292;23;20025;-70
2022/12/22 05:51:10;;;;;;;8.07;4.15;;;;;;;;;;6110320;23;20035;-70
2022/12/22 05:53:37;;;;;;;8.05;4.13;;;;;;;;;;6093432;23;20101;-70
2022/12/22 05:56:26;;;;;;;7.97;4.03;;;;;;;;;;6081718;23;20025;-70
2022/12/22 05:58:54;;;;;;;6.80;3.65;;;;;;;;;;6093388;23;20044;-70
2022/12/22 06:01:20;;;;;;;8.85;4.38;;;;;;;;;;6061704;23;20344;-70
2022/12/22 06:03:47;;;;;;;9.10;4.25;;;;;;;;;;6051334;23;20388;-71
2022/12/22 06:06:17;;;;;;;10.68;5.20;;;;;;;;;;6086898;23;20032;-70
2022/12/22 06:08:49;;;;;;;9.80;4.70;;;;;;;;;;6106665;23;20029;-71
2022/12/22 06:11:18;;;;;;;11.25;5.00;;;;;;;;;;6108665;23;20029;-71
2022/12/22 06:13:47;;;;;;;10.20;5.13;;;;;;;;;;6103265;23;20056;-70
2022/12/22 06:16:21;;;;;;;8.35;4.00;;;;;;;;;;6100112;23;20099;-70
2022/12/22 06:18:48;;;;;;;8.65;4.68;;;;;;;;;;6083752;23;20025;-71
2022/12/22 06:21:20;;;;;;;9.25;4.40;;;;;;;;;;6093590;23;20092;-70
2022/12/22 06:23:50;;;;;;;8.38;4.28;;;;;;;;;;6034653;23;20034;-71
2022/12/22 06:26:38;;;;;;;9.98;4.82;;;;;;;;;;6077386;23;20025;-70
2022/12/22 06:33:08;;;;;;;12.35;5.20;;;;;;;;;;6049499;23;20030;-73
2022/12/22 06:36:25;;;;;;;12.55;5.18;;;;;;;;;;6046066;23;20030;-73
2022/12/22 06:45:30;;;;;;;9.70;4.82;;;;;;;;;;5931355;23;20102;-72
2022/12/22 06:53:55;;;;;;;11.60;4.95;;;;;;;;;;6021654;23;20461;-71
2022/12/22 06:56:29;;;;;;;12.60;5.55;;;;;;;;;;6002464;23;20334;-71
2022/12/22 07:02:30;;;;;;;10.50;4.43;;;;;;;;;;6060665;23;20033;-71
2022/12/22 07:08:06;;;;;;;12.48;5.53;;;;;;;;;;6010938;23;20033;-71
2022/12/22 07:13:31;;;;;;;9.35;4.80;;;;;;;;;;6074130;23;20052;-71
2022/12/22 07:16:04;;;;;;;11.52;5.47;;;;;;;;;;6050158;23;20030;-71
2022/12/22 07:18:36;;;;;;;10.77;5.07;;;;;;;;;;6079590;23;20101;-71
2022/12/22 07:21:05;;;;;;;11.60;5.53;;;;;;;;;;6102924;23;20033;-71
2022/12/22 07:26:18;;;;;;;10.77;5.10;;;;;;;;;;6082252;23;20025;-71
2022/12/22 07:28:46;;;;;;;10.90;5.25;;;;;;;;;;6090236;23;20025;-70
2022/12/22 07:31:18;;;;;;;10.40;4.63;;;;;;;;;;6086251;23;20029;-71
2022/12/22 07:33:45;;;;;;;9.77;4.53;;;;;;;;;;6109564;23;20044;-71
2022/12/22 07:36:18;;;;;;;9.63;4.63;;;;;;;;;;6064566;23;20029;-71
2022/12/22 07:38:46;;;;;;;9.05;4.10;;;;;;;;;;6134518;23;20092;-71
2022/12/22 07:44:11;;;;;;;11.75;5.78;;;;;;;;;;6132458;23;20029;-70
2022/12/22 07:46:44;;;;;;;10.68;4.95;;;;;;;;;;6100821;23;20033;-71
2022/12/22 07:52:01;;;;;;;9.85;4.85;;;;;;;;;;6130826;23;20021;-70
2022/12/22 07:54:28;;;;;;;9.95;4.85;;;;;;;;;;6078111;23;20033;-70
2022/12/22 08:08:20;;;;;;;12.50;5.78;;;;;;;;;;6082787;23;20051;-70
2022/12/22 08:10:50;;;;;;;14.15;5.72;;;;;;;;;;6089003;23;20133;-69
2022/12/22 08:13:33;;;;;;;11.73;5.05;;;;;;;;;;6116012;23;20025;-70
2022/12/22 08:16:04;;;;;;;13.98;5.90;;;;;;;;;;6023194;23;20161;-70
2022/12/22 08:18:49;;;;;;;13.35;6.10;;;;;;;;;;6101600;23;20035;-70
2022/12/22 08:21:23;;;;;;;11.70;4.85;;;;;;;;;;6123055;23;20029;-70
2022/12/22 08:26:42;;;;;;;14.88;5.82;;;;;;;;;;6082596;23;20084;-70
2022/12/22 08:29:21;;;;;;;13.68;6.03;;;;;;;;;;6053903;23;20029;-70
2022/12/22 08:32:19;;;;;;;14.93;6.47;;;;;;;;;;6078761;23;20033;-70
2022/12/22 08:34:49;;;;;;;15.07;5.70;;;;;;;;;;6071807;23;20032;-70
2022/12/22 08:37:20;;;;;;;14.23;5.97;;;;;;;;;;6130185;23;20088;-70
2022/12/22 08:40:05;;;;;;;12.50;5.78;;;;;;;;;;6119875;23;20056;-70
2022/12/22 08:43:01;;;;;;;14.93;6.13;;;;;;;;;;6105076;23;20076;-70
2022/12/22 08:45:34;;;;;;;14.35;6.13;;;;;;;;;;6052692;23;20033;-71
2022/12/22 08:48:03;;;;;;;13.77;5.65;;;;;;;;;;6107493;23;20031;-70
2022/12/22 08:53:21;;;;;;;14.88;6.35;;;;;;;;;;6044357;23;20084;-70
2022/12/22 08:55:51;;;;;;;13.48;6.00;;;;;;;;;;6055604;23;20020;-70
2022/12/22 08:58:17;;;;;;;17.52;6.60;;;;;;;;;;6107469;23;20321;-70
2022/12/22 09:00:56;;;;;;;16.08;6.75;;;;;;;;;;6101711;23;20030;-71
2022/12/22 09:03:35;;;;;;;18.00;6.63;;;;;;;;;;6059459;23;20171;-71
2022/12/22 09:06:11;;;;;;;16.55;5.82;;;;;;;;;;6033767;23;20099;-71
2022/12/22 09:12:07;;;;;;;15.90;6.22;;;;;;;;;;6090670;23;20034;-70
2022/12/22 09:14:40;;;;;;;16.85;5.90;;;;;;;;;;6083898;23;20112;-71
2022/12/22 09:17:12;;;;;;;17.00;7.13;;;;;;;;;;6067736;23;20030;-70
2022/12/22 09:20:00;;;;;;;15.02;5.95;;;;;;;;;;6102898;23;20319;-70
2022/12/22 09:22:27;;;;;;;17.45;7.03;;;;;;;;;;6092107;23;20022;-71
2022/12/22 09:24:59;;;;;;;15.93;6.05;;;;;;;;;;6083548;23;20398;-70
2022/12/22 09:27:53;;;;;;;19.13;6.82;;;;;;;;;;6066691;23;20100;-71
2022/12/22 09:30:54;;;;;;;19.17;6.85;;;;;;;;;;6089630;23;20024;-71
2022/12/22 09:33:25;;;;;;;17.77;6.80;;;;;;;;;;6116664;23;20021;-71
2022/12/22 09:41:56;;;;;;;18.65;7.22;;;;;;;;;;6076230;23;20044;-71
2022/12/22 09:44:26;;;;;;;21.75;7.47;;;;;;;;;;6076265;23;20030;-71
2022/12/22 09:47:04;;;;;;;17.25;7.10;;;;;;;;;;6051184;23;20037;-71
2022/12/22 09:52:34;;;;;;;16.67;5.85;;;;;;;;;;6036687;23;20052;-71
2022/12/22 09:58:33;;;;;;;18.92;7.10;;;;;;;;;;6071366;23;20025;-71
2022/12/22 10:01:23;;;;;;;15.48;6.32;;;;;;;;;;6078766;23;20337;-71
2022/12/22 10:06:49;;;;;;;19.25;6.85;;;;;;;;;;5994007;23;20393;-72
2022/12/22 10:12:37;;;;;;;17.20;5.78;;;;;;;;;;6046034;23;20027;-71
2022/12/22 10:19:09;;;;;;;18.48;5.90;;;;;;;;;;6030467;23;20188;-71
2022/12/22 10:21:53;;;;;;;;;;;;;;;;;;;;;
2022/12/22 10:25:19;;;;;;;15.43;5.35;;;;;;;;;;5998151;23;20030;-71
2022/12/22 10:28:04;;;;;;;19.58;6.13;;;;;;;;;;6015358;23;20045;-71
2022/12/22 10:34:14;;;;;;;17.98;6.53;;;;;;;;;;6056572;23;20073;-72
2022/12/22 10:37:07;;;;;;;16.33;5.72;;;;;;;;;;6057659;23;20033;-71
2022/12/22 10:42:30;;;;;;;17.75;6.15;;;;;;;;;;6062040;23;20053;-71
2022/12/22 10:45:19;;;;;;;16.67;5.73;;;;;;;;;;6045800;23;20021;-71
2022/12/22 10:48:06;;;;;;;17.52;5.95;;;;;;;;;;6112076;23;20029;-71
2022/12/22 10:50:33;;;;;;;16.85;5.72;;;;;;;;;;6082434;23;20056;-71
2022/12/22 10:53:19;;;;;;;17.08;6.00;;;;;;;;;;6069871;23;20088;-70
2022/12/22 10:56:11;;;;;;;16.63;5.38;;;;;;;;;;6046392;23;20092;-71
2022/12/22 10:58:46;;;;;;;;;;;;;;;;;;6085024;23;20033;-72
2022/12/22 11:04:23;;;;;;;15.38;4.93;;;;;;;;;;6098748;23;20035;-70
2022/12/22 11:07:28;;;;;;;;;;;;;;;;;;;;;
2022/12/22 11:26:35;;;;;;;14.48;4.93;;;;;;;;;;5770839;24;20028;-73
2022/12/22 11:29:14;;;;;;;13.15;5.40;;;;;;;;;;5895965;24;20073;-72
2022/12/22 11:31:47;;;;;;;14.45;5.43;;;;;;;;;;5854447;24;20089;-71
2022/12/22 11:34:30;;;;;;;;;;;;;;;;;;;;;
2022/12/22 11:39:39;;;;;;;13.70;5.18;;;;;;;;;;5860221;24;20047;-72
2022/12/22 11:42:42;;;;;;;20.75;5.97;;;;;;;;;;5960190;23;20104;-71
2022/12/22 11:45:25;;;;;;;14.38;5.90;;;;;;;;;;6113705;23;20040;-72
2022/12/22 11:48:01;;;;;;;16.55;5.57;;;;;;;;;;6091910;23;20086;-72
2022/12/22 11:50:36;;;;;;;14.93;5.47;;;;;;;;;;6146374;23;20043;-72
2022/12/22 11:53:33;;;;;;;16.08;6.30;;;;;;;;;;6085897;23;20081;-72
2022/12/22 11:59:32;;;;;;;18.38;7.05;;;;;;;;;;6122563;23;20163;-72
2022/12/22 12:02:26;;;;;;;14.07;6.07;;;;;;;;;;6100441;23;20064;-71
2022/12/22 12:05:21;;;;;;;;;;;;;;;;;;;;;
2022/12/22 12:10:52;;;;;;;17.20;5.90;;;;;;;;;;6089857;23;20056;-71
2022/12/22 12:13:28;;;;;;;15.85;6.22;;;;;;;;;;6058181;23;20372;-71
2022/12/22 12:16:03;;;;;;;14.57;5.78;;;;;;;;;;6100667;23;20103;-71
2022/12/22 12:18:36;;;;;;;16.10;6.53;;;;;;;;;;6099447;23;20018;-71
2022/12/22 12:21:16;;;;;;;19.38;6.38;;;;;;;;;;6081810;23;20022;-71
2022/12/22 12:24:06;;;;;;;18.98;6.63;;;;;;;;;;6093493;23;20088;-72
2022/12/22 12:26:51;;;;;;;17.40;5.68;;;;;;;;;;6076375;23;20034;-72
2022/12/22 12:29:24;;;;;;;15.60;6.03;;;;;;;;;;6108518;23;20029;-72
2022/12/22 12:32:01;;;;;;;15.85;6.30;;;;;;;;;;6061244;23;20027;-73
2022/12/22 13:10:12;;;;;;;14.38;5.18;;;;;;;;;;6229208;22;19919;-82
2022/12/22 13:12:50;;;;;;;12.13;5.30;;;;;;;;;;6086404;23;20029;-83
2022/12/22 13:33:11;;;;;;;16.20;6.28;;;;;;;;;;6136183;22;2606581;-81
2022/12/22 13:35:51;;;;;;;13.57;6.18;;;;;;;;;;6051308;23;20090;-82
2022/12/22 13:49:45;;;;;;;15.32;6.03;;;;;;;;;;5646265;23;20116;-84
2022/12/22 13:52:17;;;;;;;15.88;6.30;;;;;;;;;;4795048;29;20051;-84
2022/12/22 13:54:46;;;;;;;16.25;6.50;;;;;;;;;;4750174;29;20055;-84
2022/12/22 14:13:15;;;;;;;14.80;5.50;;;;;;;;;;6140617;23;20028;-83
2022/12/22 14:31:50;;;;;;;18.92;9.63;;;;;;;;;;6187217;22;1492891;-81
2022/12/22 14:34:24;;;;;;;15.95;6.70;;;;;;;;;;6081667;23;20026;-81
2022/12/22 14:52:43;;;;;;;17.15;6.28;;;;;;;;;;6186096;22;1417415;-82
2022/12/22 14:55:22;;;;;;;15.93;6.53;;;;;;;;;;6096512;23;20048;-82
2022/12/22 16:20:45;;;;;;;22.45;10.55;;;;;;;;;;6234433;22;20024;-84
2022/12/22 16:23:14;;;;;;;21.67;10.02;;;;;;;;;;6024969;23;20032;-84
2022/12/22 16:58:18;;;;;;;21.65;9.20;;;;;;;;;;6297565;22;20024;-82
2022/12/22 18:47:33;;;;;;;12.45;5.97;;;;;;;;;;6192581;22;20028;-82
2022/12/22 19:18:28;;;;;;;13.38;6.45;;;;;;;;;;6195904;22;1487585;-82
2022/12/22 20:03:45;;;;;;;11.10;5.13;;;;;;;;;;6201938;22;20024;-82
2022/12/22 20:48:26;;;;;;;9.85;4.80;;;;;;;;;;6138544;22;2254720;-82
2022/12/22 21:06:34;;;;;;;11.47;5.50;;;;;;;;;;6019699;22;3950270;-82
2022/12/22 21:46:25;;;;;;;7.70;3.28;;;;;;;;;;6023775;22;4697754;-81
2022/12/22 21:48:58;;;;;;;10.25;3.58;;;;;;;;;;6006833;23;20051;-82
2022/12/22 22:10:43;;;;;;;8.93;4.00;;;;;;;;;;6269121;22;20026;-82
2022/12/22 22:34:54;;;;;;;7.60;3.97;;;;;;;;;;6106529;22;20034;-80
2022/12/22 22:37:41;;;;;;;7.22;3.50;;;;;;;;;;6030347;23;20211;-81
2022/12/22 22:56:29;;;;;;;7.45;3.15;;;;;;;;;;5949285;22;4271221;-81
2022/12/22 23:26:36;;;;;;;9.35;3.88;;;;;;;;;;6229176;22;20389;-82
